Time;durP1;ratioP1;P1;durP2;ratioP2;P2;SDS_P1;SDS_P2;PMS_P1;PMS_P2;Temp;Humidity;BMP_temperature;BMP_pressure;BME280_temperature;BME280_humidity;BME280_pressure;Samples;Min_cycle;Max_cycle;Signal;HPM_P1;HPM_P2
2022/07/27 00:00:46;;;;;;;15.63;14.43;;;;;;;16.44;100.00;99194.47;5052264;28;20258;-79
2022/07/27 00:03:13;;;;;;;15.03;13.83;;;;;;;16.46;100.00;99186.09;5052579;28;20719;-80
2022/07/27 00:05:40;;;;;;;14.97;13.77;;;;;;;16.40;100.00;99190.69;5052253;28;20237;-80
2022/07/27 00:08:06;;;;;;;13.90;12.80;;;;;;;16.38;100.00;99202.84;5051736;28;20260;-81
2022/07/27 00:10:34;;;;;;;14.40;13.03;;;;;;;16.35;100.00;99189.84;5052164;28;20703;-79
2022/07/27 00:13:02;;;;;;;13.50;12.50;;;;;;;16.35;100.00;99203.38;5052260;28;20316;-80
2022/07/27 00:15:29;;;;;;;14.40;13.03;;;;;;;16.29;100.00;99195.25;5048436;28;20337;-80
2022/07/27 00:17:59;;;;;;;13.60;12.50;;;;;;;16.34;100.00;99199.84;5050727;28;20236;-79
2022/07/27 00:20:27;;;;;;;14.43;13.33;;;;;;;16.32;100.00;99195.81;5050734;28;20234;-79
2022/07/27 00:22:54;;;;;;;14.40;13.30;;;;;;;16.30;100.00;99182.56;5051687;28;20249;-82
2022/07/27 00:25:21;;;;;;;15.30;14.00;;;;;;;16.29;100.00;99187.13;5051555;28;20225;-81
2022/07/27 00:27:48;;;;;;;15.07;13.87;;;;;;;16.26;100.00;99184.97;5052175;28;20283;-81
2022/07/27 00:30:16;;;;;;;14.40;13.30;;;;;;;16.27;100.00;99183.91;5050582;28;20233;-80
2022/07/27 00:32:43;;;;;;;14.73;13.37;;;;;;;16.25;100.00;99180.66;5051690;28;20299;-79
2022/07/27 00:35:10;;;;;;;14.87;13.63;;;;;;;16.25;100.00;99177.94;5048551;28;20734;-79
2022/07/27 00:37:37;;;;;;;14.80;13.60;;;;;;;16.25;100.00;99179.84;5051296;28;20229;-78
2022/07/27 00:40:04;;;;;;;14.30;13.07;;;;;;;16.23;100.00;99174.72;5049343;28;20717;-79
2022/07/27 00:42:31;;;;;;;15.47;14.17;;;;;;;16.22;100.00;99169.56;5047327;28;20660;-78
2022/07/27 00:44:58;;;;;;;13.93;12.83;;;;;;;16.23;100.00;99171.19;5051132;28;20231;-80
2022/07/27 00:47:25;;;;;;;15.13;13.53;;;;;;;16.19;100.00;99170.13;5050922;28;20234;-80
2022/07/27 00:49:52;;;;;;;13.87;12.77;;;;;;;16.17;100.00;99170.38;5051027;28;20236;-79
2022/07/27 00:52:20;;;;;;;14.00;12.90;;;;;;;16.16;100.00;99178.72;5050470;28;20244;-79
2022/07/27 00:54:47;;;;;;;13.93;12.73;;;;;;;16.15;100.00;99177.91;5049637;28;20240;-79
2022/07/27 00:57:14;;;;;;;13.00;12.00;;;;;;;16.10;100.00;99179.78;5049612;28;20236;-80
2022/07/27 00:59:41;;;;;;;12.27;11.27;;;;;;;16.12;100.00;99186.56;5049914;28;20325;-80
2022/07/27 01:02:08;;;;;;;13.20;12.20;;;;;;;16.10;100.00;99188.72;5050080;28;20799;-79
2022/07/27 01:04:38;;;;;;;12.63;11.63;;;;;;;16.09;100.00;99180.88;5050909;28;20229;-78
2022/07/27 01:07:05;;;;;;;13.37;12.17;;;;;;;16.07;100.00;99183.03;5050505;28;20291;-79
2022/07/27 01:12:23;;;;;;;12.77;11.77;;;;;;;16.03;100.00;99187.34;5050343;28;20225;-80
2022/07/27 01:14:51;;;;;;;12.00;11.10;;;;;;;16.05;100.00;99180.59;5051225;28;20224;-81
2022/07/27 01:17:18;;;;;;;12.30;11.40;;;;;;;16.04;100.00;99180.88;5051009;28;20299;-79
2022/07/27 01:19:45;;;;;;;11.63;10.57;;;;;;;16.04;100.00;99183.56;5051049;28;20226;-80
2022/07/27 01:22:11;;;;;;;11.57;10.67;;;;;;;16.02;100.00;99181.13;5050522;28;20238;-80
2022/07/27 01:24:38;;;;;;;11.70;10.70;;;;;;;16.04;100.00;99184.38;5051384;28;20780;-81
2022/07/27 01:27:06;;;;;;;12.13;11.13;;;;;;;16.03;100.00;99179.25;5050983;28;20225;-81
2022/07/27 01:29:33;;;;;;;11.87;10.60;;;;;;;16.01;100.00;99176.78;5051354;28;20320;-82
2022/07/27 01:32:00;;;;;;;11.63;10.63;;;;;;;15.99;100.00;99172.75;5051060;28;20226;-82
2022/07/27 01:34:27;;;;;;;11.83;10.83;;;;;;;16.01;100.00;99184.91;5051654;28;20313;-83
2022/07/27 01:36:53;;;;;;;12.00;11.00;;;;;;;16.00;100.00;99180.59;5049972;28;20770;-79
2022/07/27 01:39:20;;;;;;;10.80;9.90;;;;;;;15.99;100.00;99168.16;5050404;28;20356;-80
2022/07/27 01:41:47;;;;;;;11.97;10.93;;;;;;;15.98;100.00;99165.72;5050436;28;20333;-80
2022/07/27 01:44:13;;;;;;;11.90;11.00;;;;;;;15.95;100.00;99172.47;5047597;28;20595;-80
2022/07/27 01:46:40;;;;;;;11.87;10.83;;;;;;;15.95;100.00;99166.25;5050478;28;20229;-83
2022/07/27 01:49:07;;;;;;;11.87;10.97;;;;;;;15.92;100.00;99172.16;5050214;28;20303;-81
2022/07/27 01:51:34;;;;;;;11.80;10.90;;;;;;;15.90;100.00;99164.34;5049019;28;20249;-79
2022/07/27 01:54:01;;;;;;;11.87;10.83;;;;;;;15.86;100.00;99165.97;5049235;28;20244;-78
2022/07/27 01:56:27;;;;;;;11.97;10.97;;;;;;;15.78;100.00;99158.34;5050971;28;20245;-82
2022/07/27 01:58:54;;;;;;;10.77;9.97;;;;;;;15.77;100.00;99162.94;5049341;28;20714;-82
2022/07/27 02:01:21;;;;;;;12.00;10.83;;;;;;;15.72;100.00;99156.72;5050792;28;20237;-81
2022/07/27 02:03:47;;;;;;;11.60;10.70;;;;;;;15.69;100.00;99155.34;5050458;28;20268;-81
2022/07/27 02:06:14;;;;;;;11.77;10.70;;;;;;;15.69;100.00;99160.75;5049642;28;20704;-80
2022/07/27 02:08:41;;;;;;;10.60;9.80;;;;;;;15.68;100.00;99161.00;5049957;28;20225;-80
2022/07/27 02:13:53;;;;;;;11.23;10.33;;;;;;;15.64;100.00;99157.22;5047795;28;20316;-80
2022/07/27 02:16:20;;;;;;;10.80;9.90;;;;;;;15.60;100.00;99159.63;5049278;28;20254;-80
2022/07/27 02:18:49;;;;;;;10.90;10.03;;;;;;;15.57;100.00;99162.88;5048586;28;20252;-80
2022/07/27 02:21:16;;;;;;;10.90;10.00;;;;;;;15.56;100.00;99158.53;5048902;28;20282;-80
2022/07/27 02:23:44;;;;;;;10.37;9.67;;;;;;;15.54;100.00;99168.00;5050057;28;20306;-81
2022/07/27 02:26:10;;;;;;;10.70;9.90;;;;;;;15.52;100.00;99164.72;5049140;28;20321;-80
2022/07/27 02:28:38;;;;;;;10.97;10.10;;;;;;;15.50;100.00;99147.94;5050108;28;20243;-80
2022/07/27 02:31:04;;;;;;;10.40;9.50;;;;;;;15.48;100.00;99153.63;5049112;28;20237;-79
2022/07/27 02:33:31;;;;;;;11.03;9.90;;;;;;;15.50;100.00;99156.03;5049868;28;20236;-80
2022/07/27 02:35:58;;;;;;;10.30;9.40;;;;;;;15.49;100.00;99154.44;5044043;28;20720;-79
2022/07/27 02:38:24;;;;;;;10.00;9.10;;;;;;;15.50;100.00;99148.75;5047281;28;20240;-80
2022/07/27 02:40:51;;;;;;;10.20;9.37;;;;;;;15.51;100.00;99153.13;5049439;28;20225;-79
2022/07/27 02:43:18;;;;;;;9.60;8.90;;;;;;;15.52;100.00;99149.34;5049275;28;20235;-79
2022/07/27 02:45:44;;;;;;;9.70;8.90;;;;;;;15.54;100.00;99149.09;5049733;28;20968;-79
2022/07/27 02:48:12;;;;;;;8.83;8.13;;;;;;;15.53;100.00;99144.75;5048553;28;20218;-80
2022/07/27 02:50:38;;;;;;;9.30;8.60;;;;;;;15.52;100.00;99145.81;5048973;28;20237;-79
2022/07/27 02:53:05;;;;;;;7.90;7.30;;;;;;;15.51;100.00;99149.59;5048312;28;20235;-81
2022/07/27 02:55:32;;;;;;;8.13;7.40;;;;;;;15.50;100.00;99153.34;5045672;28;20648;-80
2022/07/27 02:57:58;;;;;;;7.87;7.27;;;;;;;15.48;100.00;99155.50;5046904;28;20328;-82
2022/07/27 03:00:25;;;;;;;7.90;7.17;;;;;;;15.48;100.00;99158.19;5048702;28;20235;-80
2022/07/27 03:02:52;;;;;;;8.10;7.50;;;;;;;15.46;100.00;99166.56;5047519;28;20312;-83
2022/07/27 03:05:18;;;;;;;7.67;6.97;;;;;;;15.45;100.00;99151.41;5046321;28;20317;-82
2022/07/27 03:07:45;;;;;;;7.90;7.30;;;;;;;15.47;100.00;99154.69;5046330;28;20230;-81
2022/07/27 03:10:12;;;;;;;7.60;6.90;;;;;;;15.49;100.00;99154.44;5047920;28;20225;-83
2022/07/27 03:12:38;;;;;;;8.23;7.53;;;;;;;15.46;100.00;99153.06;5045627;28;20672;-81
2022/07/27 03:15:05;;;;;;;8.60;7.90;;;;;;;15.50;100.00;99158.72;5047354;28;20220;-82
2022/07/27 03:17:32;;;;;;;8.53;7.83;;;;;;;15.49;100.00;99151.72;5045273;28;20229;-82
2022/07/27 03:19:59;;;;;;;8.87;8.03;;;;;;;15.46;100.00;99149.53;5048396;28;20240;-82
2022/07/27 03:22:29;;;;;;;7.73;7.10;;;;;;;15.48;100.00;99153.63;5047817;28;20266;-83
2022/07/27 03:24:56;;;;;;;8.70;7.90;;;;;;;15.49;100.00;99152.53;5051128;28;20226;-79
2022/07/27 03:27:23;;;;;;;8.17;7.57;;;;;;;15.51;100.00;99157.69;5046932;28;20233;-80
2022/07/27 03:29:49;;;;;;;8.40;7.80;;;;;;;15.48;100.00;99167.13;5049139;28;20324;-80
2022/07/27 03:32:16;;;;;;;7.57;6.97;;;;;;;15.49;100.00;99157.13;5049859;28;20598;-81
2022/07/27 03:34:42;;;;;;;8.53;7.83;;;;;;;15.51;100.00;99172.00;5049956;28;20699;-80
2022/07/27 03:37:09;;;;;;;7.90;7.30;;;;;;;15.52;100.00;99165.53;5052647;28;20232;-80
2022/07/27 03:39:36;;;;;;;8.60;7.90;;;;;;;15.53;100.00;99161.78;5053112;28;20236;-79
2022/07/27 03:42:02;;;;;;;7.60;7.10;;;;;;;15.56;100.00;99168.53;5052337;28;20248;-79
2022/07/27 03:44:29;;;;;;;8.30;7.60;;;;;;;15.59;100.00;99170.69;5053081;28;20302;-79
2022/07/27 03:46:56;;;;;;;8.20;7.50;;;;;;;15.59;100.00;99162.59;5052672;28;20312;-80
2022/07/27 03:49:22;;;;;;;8.13;7.53;;;;;;;15.60;100.00;99175.84;5050060;28;20238;-79
2022/07/27 03:51:49;;;;;;;8.37;7.77;;;;;;;15.63;100.00;99169.91;5053137;28;20742;-79
2022/07/27 03:54:19;;;;;;;7.97;7.37;;;;;;;15.66;100.00;99172.09;5049529;28;20225;-79
2022/07/27 03:56:45;;;;;;;8.27;7.67;;;;;;;15.70;100.00;99181.28;5048805;28;20240;-79
2022/07/27 03:59:12;;;;;;;8.40;7.70;;;;;;;15.75;100.00;99178.59;5047221;28;20861;-80
2022/07/27 04:01:39;;;;;;;8.50;7.80;;;;;;;15.83;100.00;99174.56;5045424;28;20614;-80
2022/07/27 04:04:06;;;;;;;8.13;7.43;;;;;;;16.09;100.00;99187.09;5045635;28;20317;-79
2022/07/27 04:06:33;;;;;;;8.47;7.83;;;;;;;16.77;100.00;99203.19;5046738;28;20320;-79
2022/07/27 04:08:59;;;;;;;7.83;7.03;;;;;;;17.53;100.00;99214.75;5043533;28;20257;-79
2022/07/27 04:11:34;;;;;;;7.27;6.67;;;;;;;18.56;100.00;99241.22;5047606;28;20225;-80
2022/07/27 04:14:09;;;;;;;7.27;6.37;;;;;;;19.59;100.00;99273.53;5044717;28;20224;-80
2022/07/27 04:16:38;;;;;;;6.50;6.00;;;;;;;20.48;100.00;99308.13;5048800;28;20230;-80
2022/07/27 04:19:05;;;;;;;5.77;5.27;;;;;;;21.18;100.00;99225.75;5045385;28;20324;-79
2022/07/27 04:21:34;;;;;;;5.77;5.20;;;;;;;20.99;100.00;99185.72;5046715;28;20230;-79
2022/07/27 04:24:01;;;;;;;7.33;5.57;;;;;;;20.52;100.00;99184.03;5047467;28;20320;-77
2022/07/27 04:26:27;;;;;;;6.03;5.53;;;;;;;19.95;100.00;99184.25;5044482;28;20235;-80
2022/07/27 04:28:54;;;;;;;5.83;5.33;;;;;;;19.42;100.00;99172.59;5043830;28;20313;-80
2022/07/27 04:31:22;;;;;;;6.00;5.40;;;;;;;19.09;100.00;99182.44;5051200;28;20241;-79
2022/07/27 04:33:49;;;;;;;6.00;5.50;;;;;;;18.78;100.00;99174.56;5051950;28;20240;-80
2022/07/27 04:36:15;;;;;;;6.00;5.50;;;;;;;18.61;100.00;99171.47;5049918;28;20702;-80
2022/07/27 04:38:42;;;;;;;6.10;5.70;;;;;;;18.51;100.00;99178.81;5051888;28;20249;-81
2022/07/27 04:41:09;;;;;;;6.47;5.97;;;;;;;18.46;100.00;99187.81;5051766;28;20236;-80
2022/07/27 04:43:35;;;;;;;7.33;6.00;;;;;;;18.55;100.00;99178.00;5051046;28;20235;-80
2022/07/27 04:46:03;;;;;;;6.87;6.17;;;;;;;18.62;100.00;99180.38;5051292;28;20240;-79
2022/07/27 04:48:33;;;;;;;7.00;6.27;;;;;;;18.70;100.00;99179.78;5047035;28;20809;-80
2022/07/27 04:51:01;;;;;;;6.83;6.23;;;;;;;18.84;100.00;99183.47;5049318;28;20233;-80
2022/07/27 04:53:27;;;;;;;6.73;6.23;;;;;;;18.95;100.00;99182.28;5049210;28;20237;-79
2022/07/27 04:55:54;;;;;;;7.60;6.90;;;;;;;19.04;100.00;99183.28;5051787;28;20248;-81
2022/07/27 04:58:21;;;;;;;7.20;6.50;;;;;;;19.21;100.00;99186.41;5049810;28;20238;-82
2022/07/27 05:00:47;;;;;;;7.07;6.37;;;;;;;19.28;100.00;99184.16;5051485;28;20350;-79
2022/07/27 05:03:14;;;;;;;6.20;5.70;;;;;;;19.42;100.00;99181.56;5051228;28;20236;-80
2022/07/27 05:05:41;;;;;;;7.13;5.50;;;;;;;19.48;100.00;99187.78;5051853;28;20315;-81
2022/07/27 05:08:16;;;;;;;5.77;5.27;;;;;;;19.65;100.00;99199.00;5049023;28;20237;-80
2022/07/27 05:10:43;;;;;;;6.07;5.57;;;;;;;19.74;100.00;99189.91;5051802;28;20663;-80
2022/07/27 05:13:10;;;;;;;6.07;5.50;;;;;;;19.80;100.00;99185.22;5050080;28;20723;-79
2022/07/27 05:15:37;;;;;;;5.87;5.37;;;;;;;19.92;100.00;99187.56;5051377;28;20232;-79
2022/07/27 05:18:22;;;;;;;5.77;5.13;;;;;;;20.04;100.00;99187.94;5050775;28;20236;-82
2022/07/27 05:20:48;;;;;;;5.50;5.00;;;;;;;20.21;100.00;99182.78;5048337;28;20600;-80
2022/07/27 05:23:16;;;;;;;5.43;5.03;;;;;;;20.33;100.00;99185.94;5051109;28;20750;-80
2022/07/27 05:25:43;;;;;;;5.40;5.00;;;;;;;20.34;100.00;99195.72;5051213;28;20265;-80
2022/07/27 05:28:12;;;;;;;4.60;4.20;;;;;;;20.38;100.00;99199.47;5050177;28;20645;-80
2022/07/27 05:30:39;;;;;;;4.97;4.57;;;;;;;20.63;100.00;99196.34;5051416;28;20225;-82
2022/07/27 05:33:06;;;;;;;5.47;5.07;;;;;;;20.82;100.00;99203.69;5051632;28;20687;-83
2022/07/27 05:35:33;;;;;;;5.97;5.43;;;;;;;20.99;100.00;99204.78;5033960;28;20257;-81
2022/07/27 05:37:59;;;;;;;6.23;5.67;;;;;;;21.13;100.00;99214.91;5050327;28;20319;-81
2022/07/27 05:40:26;;;;;;;6.07;5.57;;;;;;;21.24;100.00;99210.91;5017231;28;20672;-81
2022/07/27 05:42:54;;;;;;;6.30;5.70;;;;;;;21.32;100.00;99207.50;5018812;28;20249;-81
2022/07/27 05:45:20;;;;;;;5.90;5.30;;;;;;;21.43;100.00;99206.19;5049630;28;20644;-80
2022/07/27 05:47:47;;;;;;;6.33;5.83;;;;;;;21.57;100.00;99209.75;5048947;28;20312;-79
2022/07/27 05:50:16;;;;;;;5.90;5.40;;;;;;;21.65;100.00;99203.59;5020505;28;20239;-80
2022/07/27 05:52:43;;;;;;;5.80;5.30;;;;;;;21.74;100.00;99215.41;5051181;28;20253;-80
2022/07/27 05:55:11;;;;;;;5.90;5.40;;;;;;;21.87;100.00;99213.81;5049693;28;20261;-81
2022/07/27 05:57:40;;;;;;;5.95;5.45;;;;;;;22.03;100.00;99215.13;5032925;28;20317;-80
2022/07/27 06:00:08;;;;;;;5.72;5.28;;;;;;;22.14;100.00;99224.72;5046620;28;20316;-80
2022/07/27 06:02:38;;;;;;;5.45;4.95;;;;;;;22.18;100.00;99225.72;5045038;28;20257;-80
2022/07/27 06:05:05;;;;;;;4.95;4.65;;;;;;;22.29;100.00;99229.06;5036230;28;20248;-83
2022/07/27 06:10:20;;;;;;;5.47;5.00;;;;;;;22.44;100.00;99222.47;5047738;28;20282;-81
2022/07/27 06:12:46;;;;;;;6.25;4.45;;;;;;;22.47;100.00;99227.28;5051248;28;20264;-82
2022/07/27 06:15:14;;;;;;;5.13;4.70;;;;;;;22.26;100.00;99225.00;5049680;28;20226;-82
2022/07/27 06:17:41;;;;;;;6.03;4.45;;;;;;;22.57;100.00;99224.34;5043061;28;20233;-81
2022/07/27 06:20:08;;;;;;;4.65;4.20;;;;;;;22.73;100.00;99223.69;5046111;28;20318;-81
2022/07/27 06:22:45;;;;;;;4.05;3.70;;;;;;;22.91;100.00;99221.13;5038479;28;20225;-80
2022/07/27 06:25:12;;;;;;;4.22;3.92;;;;;;;23.07;100.00;99222.34;5029103;28;20225;-81
2022/07/27 06:27:39;;;;;;;4.32;3.92;;;;;;;23.20;100.00;99213.25;5031729;28;20275;-81
2022/07/27 06:30:06;;;;;;;4.63;4.22;;;;;;;23.36;100.00;99227.34;5050120;28;20764;-80
2022/07/27 06:32:33;;;;;;;4.47;3.95;;;;;;;23.53;100.00;99222.00;5046274;28;20325;-81
2022/07/27 06:35:01;;;;;;;4.45;4.15;;;;;;;23.63;100.00;99222.53;5050171;28;20232;-81
2022/07/27 06:37:28;;;;;;;5.00;3.92;;;;;;;23.84;100.00;99219.25;5049136;28;20238;-81
2022/07/27 06:39:55;;;;;;;4.00;3.67;;;;;;;23.93;100.00;99229.09;5049220;28;20257;-80
2022/07/27 06:42:22;;;;;;;3.65;3.45;;;;;;;24.07;100.00;99224.31;5047110;28;20644;-80
2022/07/27 06:44:48;;;;;;;3.85;3.55;;;;;;;24.22;100.00;99222.25;5049301;28;20318;-81
2022/07/27 06:47:15;;;;;;;3.80;3.50;;;;;;;24.33;99.63;99226.31;5049847;28;20328;-80
2022/07/27 06:49:42;;;;;;;3.80;3.45;;;;;;;24.50;97.44;99221.66;5048412;28;20233;-81
2022/07/27 06:52:08;;;;;;;3.75;3.45;;;;;;;24.61;98.88;99227.63;5022641;28;20257;-81
2022/07/27 06:54:35;;;;;;;4.35;3.33;;;;;;;24.73;98.59;99221.53;5048594;28;20649;-80
2022/07/27 06:57:01;;;;;;;5.00;3.55;;;;;;;24.79;100.00;99218.28;5031837;28;20624;-81
2022/07/27 06:59:30;;;;;;;5.55;3.13;;;;;;;24.92;86.56;99214.59;5052848;28;20995;-79
2022/07/27 07:02:09;;;;;;;3.20;3.00;;;;;;;24.85;83.77;99213.47;5050235;28;20234;-80
2022/07/27 07:04:35;;;;;;;2.85;2.63;;;;;;;25.11;84.19;99217.00;5050621;28;20242;-81
2022/07/27 07:07:02;;;;;;;3.70;3.00;;;;;;;25.14;86.14;99210.88;5034223;28;20281;-80
2022/07/27 07:09:33;;;;;;;3.35;3.05;;;;;;;25.17;88.37;99221.19;5052606;28;20286;-80
2022/07/27 07:12:00;;;;;;;3.85;3.30;;;;;;;25.35;83.59;99225.50;5053898;28;20765;-80
2022/07/27 07:14:27;;;;;;;3.40;3.10;;;;;;;25.50;76.95;99217.88;5052193;28;20250;-80
2022/07/27 07:16:53;;;;;;;3.10;2.90;;;;;;;25.42;79.03;99217.59;5049872;28;20296;-79
2022/07/27 07:19:20;;;;;;;3.75;2.92;;;;;;;25.62;76.70;99216.06;5049875;28;20327;-80
2022/07/27 07:21:47;;;;;;;2.85;2.65;;;;;;;25.95;80.25;99216.25;5053653;28;20304;-79
2022/07/27 07:24:13;;;;;;;3.38;3.08;;;;;;;26.16;75.45;99227.28;5048953;28;20228;-81
2022/07/27 07:26:40;;;;;;;3.30;3.00;;;;;;;26.47;69.53;99215.97;5052594;28;20319;-79
2022/07/27 07:29:07;;;;;;;3.42;2.60;;;;;;;26.94;65.59;99219.31;5043801;28;20586;-79
2022/07/27 07:31:34;;;;;;;3.83;2.53;;;;;;;26.98;63.95;99214.75;5047559;28;20299;-79
2022/07/27 07:34:01;;;;;;;3.45;2.47;;;;;;;27.16;61.41;99221.69;5047009;28;20227;-79
2022/07/27 07:36:28;;;;;;;3.00;2.60;;;;;;;26.93;62.57;99203.97;5046488;28;20601;-80
2022/07/27 07:38:55;;;;;;;2.90;2.70;;;;;;;26.72;64.65;99214.97;5022097;28;20320;-81
2022/07/27 07:41:22;;;;;;;2.80;2.53;;;;;;;26.53;69.35;99211.88;5041577;28;20260;-79
2022/07/27 07:43:49;;;;;;;4.93;3.25;;;;;;;26.43;73.60;99204.84;5046030;28;20693;-80
2022/07/27 07:46:16;;;;;;;3.88;3.20;;;;;;;26.26;78.87;99197.53;5041455;28;20321;-81
2022/07/27 07:48:42;;;;;;;3.40;3.10;;;;;;;26.31;79.29;99199.28;5048053;28;20229;-79
2022/07/27 07:51:10;;;;;;;3.00;2.60;;;;;;;26.27;72.76;99188.16;5039727;28;20237;-80
2022/07/27 07:53:37;;;;;;;2.80;2.53;;;;;;;26.32;70.45;99194.59;5040217;28;20260;-79
2022/07/27 07:56:07;;;;;;;3.00;2.80;;;;;;;26.36;66.32;99193.59;5041105;28;20226;-78
2022/07/27 07:58:34;;;;;;;3.20;2.90;;;;;;;26.38;71.12;99185.00;5047421;28;20256;-80
2022/07/27 08:01:02;;;;;;;4.95;2.75;;;;;;;26.31;69.15;99190.25;5046764;28;20245;-79
2022/07/27 08:03:29;;;;;;;2.72;2.53;;;;;;;26.42;69.66;99188.69;5049549;28;20308;-78
2022/07/27 08:05:56;;;;;;;2.95;2.75;;;;;;;26.44;66.32;99191.94;5046030;28;20260;-79
2022/07/27 08:08:22;;;;;;;2.63;2.42;;;;;;;26.53;69.17;99198.16;5048196;28;20359;-79
2022/07/27 08:10:50;;;;;;;3.13;2.83;;;;;;;26.52;66.69;99185.56;5045491;28;20609;-79
2022/07/27 08:13:17;;;;;;;4.05;2.83;;;;;;;26.53;69.31;99187.97;5046877;28;20226;-79
2022/07/27 08:15:48;;;;;;;2.97;2.65;;;;;;;26.57;69.33;99188.09;5042986;28;20233;-80
2022/07/27 08:18:15;;;;;;;2.88;2.67;;;;;;;26.77;65.79;99181.78;5046834;28;20292;-79
2022/07/27 08:20:42;;;;;;;3.20;2.90;;;;;;;26.70;65.07;99192.50;5050852;28;20233;-78
2022/07/27 08:23:09;;;;;;;3.33;3.00;;;;;;;26.65;68.61;99184.47;5050506;28;20592;-79
2022/07/27 08:25:36;;;;;;;3.00;2.80;;;;;;;26.57;69.49;99182.59;5046693;28;20317;-78
2022/07/27 08:28:05;;;;;;;3.13;2.92;;;;;;;26.73;69.74;99189.09;5048879;28;20256;-78
2022/07/27 08:30:33;;;;;;;3.83;2.88;;;;;;;26.83;64.27;99179.66;5048931;28;20647;-79
2022/07/27 08:33:02;;;;;;;3.45;3.00;;;;;;;27.02;63.36;99183.50;5050107;28;20320;-79
2022/07/27 08:35:31;;;;;;;3.10;2.90;;;;;;;27.16;65.83;99180.44;5046479;28;20294;-81
2022/07/27 08:37:58;;;;;;;4.13;2.95;;;;;;;27.14;64.16;99177.25;5048602;28;20268;-79
2022/07/27 08:40:25;;;;;;;3.47;2.90;;;;;;;27.17;61.82;99180.13;5049533;28;20230;-80
2022/07/27 08:43:14;;;;;;;3.38;2.90;;;;;;;27.32;61.13;99170.41;5049639;28;20761;-79
2022/07/27 08:45:58;;;;;;;3.33;3.03;;;;;;;27.54;62.07;99174.72;5049953;28;20234;-81
2022/07/27 08:48:26;;;;;;;3.22;2.70;;;;;;;27.33;62.91;99169.28;5046506;28;20233;-78
2022/07/27 08:50:54;;;;;;;3.10;2.80;;;;;;;27.36;63.97;99173.28;5003185;28;1178746;-80
2022/07/27 08:53:21;;;;;;;4.72;3.03;;;;;;;27.59;59.61;99178.03;5030316;28;20271;-79
2022/07/27 08:55:48;;;;;;;3.50;2.92;;;;;;;27.91;58.19;99183.78;5045316;28;20225;-78
2022/07/27 08:58:15;;;;;;;3.13;2.85;;;;;;;27.91;57.67;99175.50;5048935;28;20251;-79
2022/07/27 09:00:43;;;;;;;3.08;2.78;;;;;;;28.52;56.45;99184.50;5050400;28;20784;-79
2022/07/27 09:03:11;;;;;;;3.15;2.83;;;;;;;29.15;54.83;99185.56;5050226;28;20755;-79
2022/07/27 09:05:54;;;;;;;3.28;2.97;;;;;;;29.22;53.23;99179.41;5046857;28;20232;-78
2022/07/27 09:08:23;;;;;;;3.20;2.90;;;;;;;29.80;51.41;99183.31;5048547;28;20302;-79
2022/07/27 09:10:53;;;;;;;2.75;2.55;;;;;;;30.24;47.66;99186.72;5050709;28;20248;-79
2022/07/27 09:13:26;;;;;;;2.65;2.45;;;;;;;30.62;45.61;99186.00;5048620;28;20234;-79
2022/07/27 09:15:56;;;;;;;3.17;2.70;;;;;;;30.60;45.18;99188.34;5049618;28;20596;-79
2022/07/27 09:18:43;;;;;;;3.90;3.15;;;;;;;30.42;46.43;99178.84;5047398;28;20237;-78
2022/07/27 09:21:13;;;;;;;3.17;2.90;;;;;;;31.10;45.24;99176.31;5049140;28;20225;-81
2022/07/27 09:23:43;;;;;;;3.97;3.05;;;;;;;31.16;44.24;99182.38;5045992;28;20292;-81
2022/07/27 09:26:18;;;;;;;4.38;2.80;;;;;;;31.27;44.27;99180.56;5030258;28;20230;-81
2022/07/27 09:29:01;;;;;;;3.22;2.67;;;;;;;30.10;47.63;99181.66;5049169;28;20598;-81
2022/07/27 09:31:28;;;;;;;4.78;3.10;;;;;;;30.68;47.72;99178.22;5048541;28;20242;-81
2022/07/27 09:33:58;;;;;;;3.03;2.75;;;;;;;30.65;45.96;99182.53;5048426;28;20237;-81
2022/07/27 09:36:27;;;;;;;2.75;2.55;;;;;;;30.76;44.73;99189.06;5048323;28;20236;-81
2022/07/27 09:39:01;;;;;;;3.75;3.25;;;;;;;30.79;45.95;99185.56;5047098;28;20287;-80
2022/07/27 09:41:50;;;;;;;3.65;2.75;;;;;;;30.57;45.63;99181.56;5046700;28;20325;-81
2022/07/27 09:44:31;;;;;;;3.25;2.80;;;;;;;30.14;46.12;99179.00;5046630;28;20291;-81
2022/07/27 09:47:26;;;;;;;3.58;3.30;;;;;;;29.83;46.92;99188.09;5048092;28;20287;-81
2022/07/27 09:49:55;;;;;;;3.28;3.00;;;;;;;30.02;46.39;99182.66;5048045;28;20248;-81
2022/07/27 09:52:26;;;;;;;4.20;3.30;;;;;;;29.79;46.48;99189.97;5047738;28;20724;-81
2022/07/27 09:54:52;;;;;;;3.80;3.10;;;;;;;30.03;46.51;99189.81;5048856;28;20249;-81
2022/07/27 09:57:19;;;;;;;3.00;2.75;;;;;;;30.17;46.22;99187.38;5047199;28;20287;-81
2022/07/27 09:59:46;;;;;;;3.95;3.00;;;;;;;30.50;46.37;99189.72;5031377;28;20606;-82
2022/07/27 10:02:13;;;;;;;5.30;3.00;;;;;;;30.55;45.26;99183.09;5046226;28;20257;-81
2022/07/27 10:04:40;;;;;;;2.92;2.55;;;;;;;30.94;44.18;99189.41;5045452;28;20314;-81
2022/07/27 10:07:07;;;;;;;3.45;3.13;;;;;;;31.10;43.42;99183.81;5045040;28;21976;-80
2022/07/27 10:09:39;;;;;;;5.88;3.25;;;;;;;31.11;42.57;99199.25;5047005;28;20283;-81
2022/07/27 10:12:07;;;;;;;3.30;3.10;;;;;;;30.98;43.58;99190.31;5049699;28;20229;-78
2022/07/27 10:14:34;;;;;;;3.50;2.90;;;;;;;30.82;44.17;99189.56;5048606;28;20320;-81
2022/07/27 10:17:01;;;;;;;4.68;3.60;;;;;;;30.63;45.13;99187.59;5048258;28;20646;-80
2022/07/27 10:19:38;;;;;;;4.00;2.50;;;;;;;30.70;47.72;99190.53;5047837;28;20233;-79
2022/07/27 10:22:05;;;;;;;3.03;2.83;;;;;;;30.61;47.50;99190.72;5047595;28;20240;-79
2022/07/27 10:24:35;;;;;;;2.90;2.70;;;;;;;30.46;46.99;99193.56;5048809;28;20312;-79
2022/07/27 10:27:19;;;;;;;4.00;2.90;;;;;;;30.30;49.71;99181.72;5048597;28;20237;-79
2022/07/27 10:29:49;;;;;;;4.32;3.67;;;;;;;30.17;51.50;99172.75;5048442;28;20260;-80
2022/07/27 10:32:24;;;;;;;4.10;3.70;;;;;;;29.90;55.16;99182.78;5047151;28;20296;-81
2022/07/27 10:34:51;;;;;;;4.20;3.90;;;;;;;29.80;56.80;99176.97;5047459;28;20700;-79
2022/07/27 10:37:26;;;;;;;5.38;4.97;;;;;;;29.66;56.19;99182.94;5048283;28;20236;-80
2022/07/27 10:40:33;;;;;;;4.43;4.13;;;;;;;29.64;58.11;99182.50;5045617;28;20260;-80
2022/07/27 10:42:44;;;;;;;4.60;4.20;;;;;;;29.34;62.59;99195.13;5046066;28;20237;-80
2022/07/27 10:45:19;;;;;;;4.72;4.30;;;;;;;29.09;62.23;99191.66;5048267;28;20333;-79
2022/07/27 10:47:48;;;;;;;5.05;4.60;;;;;;;28.93;63.50;99188.88;5048726;28;20344;-82
2022/07/27 10:50:14;;;;;;;5.03;4.63;;;;;;;28.82;62.83;99194.09;5043814;28;20630;-81
2022/07/27 10:52:45;;;;;;;4.63;4.22;;;;;;;28.78;67.13;99192.41;5048076;28;20240;-81
2022/07/27 10:55:30;;;;;;;4.78;4.47;;;;;;;28.90;69.33;99186.81;5047490;28;20229;-81
2022/07/27 10:58:01;;;;;;;6.35;4.85;;;;;;;29.00;68.29;99183.56;5047664;28;20245;-81
2022/07/27 11:00:49;;;;;;;5.25;4.38;;;;;;;29.41;63.40;99187.03;5046397;28;20283;-83
2022/07/27 11:03:22;;;;;;;5.10;4.60;;;;;;;29.78;60.86;99182.84;5049779;28;20316;-81
2022/07/27 11:05:59;;;;;;;4.60;4.30;;;;;;;30.23;58.00;99179.63;5048000;28;20668;-79
2022/07/27 11:08:47;;;;;;;5.28;4.78;;;;;;;30.43;56.89;99188.72;5048510;28;20264;-81
2022/07/27 11:11:36;;;;;;;4.60;4.20;;;;;;;30.33;55.85;99179.03;5047715;28;20237;-81
2022/07/27 11:14:03;;;;;;;5.25;4.80;;;;;;;30.18;59.27;99188.19;5046627;28;20226;-78
2022/07/27 11:16:30;;;;;;;5.13;4.63;;;;;;;29.97;60.86;99182.16;5049301;28;20230;-83
2022/07/27 11:19:04;;;;;;;5.53;4.82;;;;;;;29.73;60.96;99185.88;5049662;28;20719;-81
2022/07/27 11:21:36;;;;;;;5.80;4.45;;;;;;;29.52;62.42;99179.84;5047086;28;20241;-81
2022/07/27 11:24:11;;;;;;;5.00;4.60;;;;;;;29.21;64.43;99186.88;5046652;28;20241;-81
2022/07/27 11:26:45;;;;;;;5.13;4.70;;;;;;;29.01;65.95;99185.16;5049096;28;20220;-81
2022/07/27 11:29:14;;;;;;;5.18;4.68;;;;;;;28.69;66.71;99183.44;5023006;28;20240;-82
2022/07/27 11:31:44;;;;;;;5.93;4.90;;;;;;;28.51;70.16;99182.91;5047062;28;20233;-81
2022/07/27 11:34:30;;;;;;;5.43;4.90;;;;;;;28.26;71.65;99175.88;5044739;28;20229;-81
2022/07/27 11:37:00;;;;;;;5.60;5.10;;;;;;;28.05;73.87;99181.47;5047682;28;20228;-82
2022/07/27 11:39:29;;;;;;;4.85;4.55;;;;;;;27.86;82.17;99179.31;5049186;28;20261;-81